Time;durP1;ratioP1;P1;durP2;ratioP2;P2;SDS_P1;SDS_P2;PMS_P1;PMS_P2;Temp;Humidity;BMP_temperature;BMP_pressure;BME280_temperature;BME280_humidity;BME280_pressure;Samples;Min_cycle;Max_cycle;Signal;HPM_P1;HPM_P2
2022/03/24 00:02:11;;;;;;;;;;;;;;;;;;5027313;28;19912;-68
2022/03/24 00:04:36;;;;;;;;;;;;;;;;;;5035629;28;19916;-67
2022/03/24 00:07:02;;;;;;;;;;;;;;;;;;5018124;28;19909;-68
2022/03/24 00:09:27;;;;;;;;;;;;;;;;;;5052821;28;19970;-68
2022/03/24 00:11:52;;;;;;;;;;;;;;;;;;5055738;28;20007;-68
2022/03/24 00:14:17;;;;;;;;;;;;;;;;;;5056001;28;19939;-68
2022/03/24 00:16:43;;;;;;;;;;;;;;;;;;5056250;28;19913;-68
2022/03/24 00:19:08;;;;;;;;;;;;;;;;;;5055702;28;20004;-67
2022/03/24 00:21:34;;;;;;;;;;;;;;;;;;5055541;28;19962;-68
2022/03/24 00:23:59;;;;;;;;;;;;;;;;;;5054965;28;19908;-68
2022/03/24 00:26:24;;;;;;;;;;;;;;;;;;5055729;28;19917;-68
2022/03/24 00:28:49;;;;;;;;;;;;;;;;;;5055455;28;19970;-68
2022/03/24 00:31:15;;;;;;;;;;;;;;;;;;5037407;28;20332;-68
2022/03/24 00:33:40;;;;;;;;;;;;;;;;;;5055253;28;20301;-68
2022/03/24 00:36:05;;;;;;;;;;;;;;;;;;5055193;28;20405;-68
2022/03/24 00:38:30;;;;;;;;;;;;;;;;;;5037300;28;20333;-68
2022/03/24 00:40:56;;;;;;;;;;;;;;;;;;5037277;28;19909;-68
2022/03/24 00:43:22;;;;;;;;;;;;;;;;;;5055119;28;19915;-68
2022/03/24 00:45:49;;;;;;;;;;;;;;;;;;5038421;28;20469;-68
2022/03/24 00:48:14;;;;;;;;;;;;;;;;;;5055361;28;19952;-68
2022/03/24 00:50:39;;;;;;;;;;;;;;;;;;5036992;28;20023;-68
2022/03/24 00:53:05;;;;;;;;;;;;;;;;;;5054943;28;19956;-68
2022/03/24 00:55:30;;;;;;;;;;;;;;;;;;5037396;28;20252;-69
2022/03/24 00:57:55;;;;;;;;;;;;;;;;;;5054743;28;19909;-68
2022/03/24 01:00:20;;;;;;;;;;;;;;;;;;5054714;28;19916;-69
2022/03/24 01:02:46;;;;;;;;;;;;;;;;;;5055336;28;19909;-68
2022/03/24 01:05:15;;;;;;;;;;;;;;;;;;5036906;28;19908;-69
2022/03/24 01:07:40;;;;;;;;;;;;;;;;;;5037759;28;19909;-68
2022/03/24 01:10:05;;;;;;;;;;;;;;;;;;5054290;28;19909;-69
2022/03/24 01:12:31;;;;;;;;;;;;;;;;;;5036557;28;19913;-68
2022/03/24 01:14:56;;;;;;;;;;;;;;;;;;5054508;28;20003;-68
2022/03/24 01:17:23;;;;;;;;;;;;;;;;;;5036519;28;19905;-69
2022/03/24 01:19:48;;;;;;;;;;;;;;;;;;5036762;28;19913;-69
2022/03/24 01:22:13;;;;;;;;;;;;;;;;;;5054380;28;19955;-69
2022/03/24 01:24:42;;;;;;;;;;;;;;;;;;5037037;28;20281;-68
2022/03/24 01:27:10;;;;;;;;;;;;;;;;;;5029735;28;19913;-68
2022/03/24 01:29:36;;;;;;;;;;;;;;;;;;5036243;28;20011;-68
2022/03/24 01:32:01;;;;;;;;;;;;;;;;;;5036244;28;19960;-68
2022/03/24 01:34:26;;;;;;;;;;;;;;;;;;5036125;28;19912;-68
2022/03/24 01:36:52;;;;;;;;;;;;;;;;;;5036256;28;19909;-68
2022/03/24 01:39:17;;;;;;;;;;;;;;;;;;5054385;28;20008;-68
2022/03/24 01:41:43;;;;;;;;;;;;;;;;;;5035951;28;19908;-68
2022/03/24 01:44:09;;;;;;;;;;;;;;;;;;5036201;28;19916;-68
2022/03/24 01:46:35;;;;;;;;;;;;;;;;;;5054383;28;19963;-68
2022/03/24 01:49:01;;;;;;;;;;;;;;;;;;5036237;28;19909;-69
2022/03/24 01:51:26;;;;;;;;;;;;;;;;;;5035967;28;20354;-68
2022/03/24 01:53:53;;;;;;;;;;;;;;;;;;5054284;28;19912;-68
2022/03/24 01:56:18;;;;;;;;;;;;;;;;;;5053727;28;19905;-69
2022/03/24 01:58:44;;;;;;;;;;;;;;;;;;5036915;28;19915;-68
2022/03/24 02:01:10;;;;;;;;;;;;;;;;;;5015390;28;20253;-68
2022/03/24 02:03:36;;;;;;;;;;;;;;;;;;5016120;28;19936;-69
2022/03/24 02:06:02;;;;;;;;;;;;;;;;;;5016195;28;20353;-68
2022/03/24 02:08:27;;;;;;;;;;;;;;;;;;5016185;28;19909;-69
2022/03/24 02:10:52;;;;;;;;;;;;;;;;;;5033676;28;19913;-69
2022/03/24 02:13:18;;;;;;;;;;;;;;;;;;5016244;28;19976;-69
2022/03/24 02:15:43;;;;;;;;;;;;;;;;;;5016407;28;19916;-69
2022/03/24 02:18:09;;;;;;;;;;;;;;;;;;5015746;28;19920;-69
2022/03/24 02:20:35;;;;;;;;;;;;;;;;;;5034171;28;19956;-69
2022/03/24 02:23:01;;;;;;;;;;;;;;;;;;5034180;28;19940;-69
2022/03/24 02:25:31;;;;;;;;;;;;;;;;;;5015892;28;19952;-69
2022/03/24 02:27:57;;;;;;;;;;;;;;;;;;5031620;28;19909;-69
2022/03/24 02:30:24;;;;;;;;;;;;;;;;;;5032697;28;20050;-69
2022/03/24 02:32:49;;;;;;;;;;;;;;;;;;5033410;28;19952;-68
2022/03/24 02:35:14;;;;;;;;;;;;;;;;;;5033672;28;19975;-68
2022/03/24 02:37:40;;;;;;;;;;;;;;;;;;5016038;28;19917;-68
2022/03/24 02:40:05;;;;;;;;;;;;;;;;;;5015884;28;19909;-68
2022/03/24 02:42:30;;;;;;;;;;;;;;;;;;5033721;28;19909;-68
2022/03/24 02:44:56;;;;;;;;;;;;;;;;;;5033313;28;19909;-68
2022/03/24 02:47:21;;;;;;;;;;;;;;;;;;5035372;28;19909;-69
2022/03/24 02:49:46;;;;;;;;;;;;;;;;;;5037577;28;19905;-68
2022/03/24 02:52:11;;;;;;;;;;;;;;;;;;5037182;28;19913;-68
2022/03/24 02:54:37;;;;;;;;;;;;;;;;;;5037172;28;20257;-68
2022/03/24 02:57:02;;;;;;;;;;;;;;;;;;5037156;28;20266;-68
2022/03/24 02:59:27;;;;;;;;;;;;;;;;;;5037051;28;19917;-68
2022/03/24 03:01:53;;;;;;;;;;;;;;;;;;5042098;28;19905;-68
2022/03/24 03:04:18;;;;;;;;;;;;;;;;;;5056714;28;19909;-68
2022/03/24 03:06:44;;;;;;;;;;;;;;;;;;5037055;28;19909;-68
2022/03/24 03:09:09;;;;;;;;;;;;;;;;;;5056586;28;19909;-68
2022/03/24 03:11:35;;;;;;;;;;;;;;;;;;5039265;28;19919;-68
2022/03/24 03:14:00;;;;;;;;;;;;;;;;;;5057036;28;19912;-69
2022/03/24 03:16:25;;;;;;;;;;;;;;;;;;5037260;28;20419;-69
2022/03/24 03:18:50;;;;;;;;;;;;;;;;;;5036707;28;19948;-69
2022/03/24 03:21:16;;;;;;;;;;;;;;;;;;5036406;28;19952;-69
2022/03/24 03:23:42;;;;;;;;;;;;;;;;;;5002606;28;19909;-69
2022/03/24 03:26:07;;;;;;;;;;;;;;;;;;5019431;28;19916;-69
2022/03/24 03:28:32;;;;;;;;;;;;;;;;;;5036583;28;19909;-69
2022/03/24 03:30:57;;;;;;;;;;;;;;;;;;5034512;28;20012;-69
2022/03/24 03:33:22;;;;;;;;;;;;;;;;;;5036428;28;19914;-69
2022/03/24 03:35:48;;;;;;;;;;;;;;;;;;5019224;28;19912;-69
2022/03/24 03:38:13;;;;;;;;;;;;;;;;;;5036712;28;19980;-69
2022/03/24 03:40:38;;;;;;;;;;;;;;;;;;5036655;28;19913;-69
2022/03/24 03:43:03;;;;;;;;;;;;;;;;;;5018384;28;19909;-69
2022/03/24 03:45:28;;;;;;;;;;;;;;;;;;5036274;28;19913;-68
2022/03/24 03:47:54;;;;;;;;;;;;;;;;;;5036505;28;19909;-68
2022/03/24 03:50:19;;;;;;;;;;;;;;;;;;5023331;28;19920;-68
2022/03/24 03:52:44;;;;;;;;;;;;;;;;;;5053910;28;19966;-68
2022/03/24 03:55:10;;;;;;;;;;;;;;;;;;5055746;28;20341;-67
2022/03/24 03:57:35;;;;;;;;;;;;;;;;;;5037281;28;20354;-69
2022/03/24 04:00:52;;;;;;;;;;;;;;;;;;5055223;28;20272;-69
2022/03/24 04:02:45;;;;;;;;;;;;;;;;;;5055649;28;20027;-69
2022/03/24 04:05:11;;;;;;;;;;;;;;;;;;5053400;28;20392;-67
2022/03/24 04:07:36;;;;;;;;;;;;;;;;;;5055747;28;19909;-69
2022/03/24 04:10:01;;;;;;;;;;;;;;;;;;5038167;28;19958;-68
2022/03/24 04:12:26;;;;;;;;;;;;;;;;;;5055442;28;19913;-68
2022/03/24 04:14:52;;;;;;;;;;;;;;;;;;5055645;28;19958;-68
2022/03/24 04:17:18;;;;;;;;;;;;;;;;;;5055315;28;20012;-68
2022/03/24 04:19:43;;;;;;;;;;;;;;;;;;5037585;28;19952;-68
2022/03/24 04:22:08;;;;;;;;;;;;;;;;;;5055225;28;19961;-68
2022/03/24 04:24:34;;;;;;;;;;;;;;;;;;5054470;28;19948;-68
2022/03/24 04:26:59;;;;;;;;;;;;;;;;;;5055181;28;19913;-68
2022/03/24 04:29:24;;;;;;;;;;;;;;;;;;5037540;28;19931;-68
2022/03/24 04:31:50;;;;;;;;;;;;;;;;;;5037433;28;19913;-67
2022/03/24 04:34:15;;;;;;;;;;;;;;;;;;5054991;28;20265;-67
2022/03/24 04:36:40;;;;;;;;;;;;;;;;;;5037511;28;20381;-68
2022/03/24 04:39:06;;;;;;;;;;;;;;;;;;5052992;28;19909;-68
2022/03/24 04:41:31;;;;;;;;;;;;;;;;;;5055044;28;19909;-68
2022/03/24 04:43:56;;;;;;;;;;;;;;;;;;5055401;28;19916;-68
2022/03/24 04:46:21;;;;;;;;;;;;;;;;;;5037857;28;19915;-68
2022/03/24 04:48:48;;;;;;;;;;;;;;;;;;5055158;28;19992;-68
2022/03/24 04:51:14;;;;;;;;;;;;;;;;;;5037332;28;20415;-69
2022/03/24 04:53:39;;;;;;;;;;;;;;;;;;5037004;28;19916;-68
2022/03/24 04:56:04;;;;;;;;;;;;;;;;;;5034479;28;19916;-69
2022/03/24 04:58:29;;;;;;;;;;;;;;;;;;5054737;28;19908;-69
2022/03/24 05:00:55;;;;;;;;;;;;;;;;;;5054724;28;19916;-68
2022/03/24 05:03:20;;;;;;;;;;;;;;;;;;5020276;28;20369;-68
2022/03/24 05:05:46;;;;;;;;;;;;;;;;;;5036789;28;19917;-68
2022/03/24 05:08:11;;;;;;;;;;;;;;;;;;5054876;28;19994;-68
2022/03/24 05:10:36;;;;;;;;;;;;;;;;;;5053911;28;20006;-68
2022/03/24 05:13:01;;;;;;;;;;;;;;;;;;5054438;28;19952;-68
2022/03/24 05:15:27;;;;;;;;;;;;;;;;;;5054492;28;20011;-69
2022/03/24 05:17:52;;;;;;;;;;;;;;;;;;5054463;28;20307;-68
2022/03/24 05:20:17;;;;;;;;;;;;;;;;;;5036965;28;19913;-68
2022/03/24 05:22:42;;;;;;;;;;;;;;;;;;5036548;28;19932;-68
2022/03/24 05:25:08;;;;;;;;;;;;;;;;;;5054241;28;19909;-69
2022/03/24 05:27:33;;;;;;;;;;;;;;;;;;5054837;28;19905;-69
2022/03/24 05:29:58;;;;;;;;;;;;;;;;;;5054063;28;20252;-68
2022/03/24 05:32:24;;;;;;;;;;;;;;;;;;5035509;28;19920;-68
2022/03/24 05:34:49;;;;;;;;;;;;;;;;;;5034147;28;19924;-68
2022/03/24 05:37:14;;;;;;;;;;;;;;;;;;5033989;28;20401;-68
2022/03/24 05:39:40;;;;;;;;;;;;;;;;;;5033858;28;19909;-68
2022/03/24 05:42:05;;;;;;;;;;;;;;;;;;5017193;28;20257;-68
2022/03/24 05:44:30;;;;;;;;;;;;;;;;;;5034423;28;20342;-68
2022/03/24 05:46:56;;;;;;;;;;;;;;;;;;5033882;28;20007;-69
2022/03/24 05:49:21;;;;;;;;;;;;;;;;;;5034375;28;19909;-68
2022/03/24 05:52:11;;;;;;;;;;;;;;;;;;5016764;28;19916;-68
2022/03/24 05:54:36;;;;;;;;;;;;;;;;;;5016430;28;19914;-68
2022/03/24 05:57:01;;;;;;;;;;;;;;;;;;5016191;28;19912;-68
2022/03/24 05:59:27;;;;;;;;;;;;;;;;;;5021014;28;19917;-68
2022/03/24 06:01:52;;;;;;;;;;;;;;;;;;5014112;28;20107;-68
2022/03/24 06:04:18;;;;;;;;;;;;;;;;;;5013997;28;20278;-68
2022/03/24 06:06:43;;;;;;;;;;;;;;;;;;5034108;28;19909;-68
2022/03/24 06:09:08;;;;;;;;;;;;;;;;;;5033625;28;20021;-68
2022/03/24 06:11:35;;;;;;;;;;;;;;;;;;5033869;28;20008;-69
2022/03/24 06:14:00;;;;;;;;;;;;;;;;;;5004800;28;20348;-69
2022/03/24 06:16:27;;;;;;;;;;;;;;;;;;5053569;28;19967;-68
2022/03/24 06:18:52;;;;;;;;;;;;;;;;;;5035874;28;19959;-68
2022/03/24 06:21:17;;;;;;;;;;;;;;;;;;5054171;28;19909;-69
2022/03/24 06:23:42;;;;;;;;;;;;;;;;;;5058136;28;20002;-68
2022/03/24 06:26:08;;;;;;;;;;;;;;;;;;5039881;28;19915;-69
2022/03/24 06:28:34;;;;;;;;;;;;;;;;;;5057769;28;19931;-68
2022/03/24 06:31:00;;;;;;;;;;;;;;;;;;5057686;28;19917;-69
2022/03/24 06:33:25;;;;;;;;;;;;;;;;;;5040518;28;19913;-68
2022/03/24 06:35:50;;;;;;;;;;;;;;;;;;5057363;28;20312;-70
2022/03/24 06:38:16;;;;;;;;;;;;;;;;;;5023859;28;20245;-68
2022/03/24 06:40:41;;;;;;;;;;;;;;;;;;5039436;28;20235;-68
2022/03/24 06:43:06;;;;;;;;;;;;;;;;;;5057463;28;19908;-68
2022/03/24 06:45:31;;;;;;;;;;;;;;;;;;5057308;28;19915;-68
2022/03/24 06:47:57;;;;;;;;;;;;;;;;;;5039607;28;19948;-68
2022/03/24 06:50:22;;;;;;;;;;;;;;;;;;5057764;28;19909;-69
2022/03/24 06:52:47;;;;;;;;;;;;;;;;;;5040174;28;20262;-68
2022/03/24 06:55:16;;;;;;;;;;;;;;;;;;5039393;28;19908;-70
2022/03/24 06:57:41;;;;;;;;;;;;;;;;;;5057202;28;20034;-68
2022/03/24 07:00:06;;;;;;;;;;;;;;;;;;5057008;28;20007;-67
2022/03/24 07:02:31;;;;;;;;;;;;;;;;;;5057904;28;19911;-66
2022/03/24 07:04:57;;;;;;;;;;;;;;;;;;5023149;28;20253;-66
2022/03/24 07:07:22;;;;;;;;;;;;;;;;;;5039453;28;20055;-66
2022/03/24 07:09:47;;;;;;;;;;;;;;;;;;5039143;28;20288;-68
2022/03/24 07:12:13;;;;;;;;;;;;;;;;;;5038975;28;19963;-67
2022/03/24 07:14:38;;;;;;;;;;;;;;;;;;5056591;28;20384;-67
2022/03/24 07:17:04;;;;;;;;;;;;;;;;;;5038980;28;19909;-65
2022/03/24 07:19:29;;;;;;;;;;;;;;;;;;5056525;28;19913;-66
2022/03/24 07:21:54;;;;;;;;;;;;;;;;;;5035372;28;19995;-66
2022/03/24 07:24:20;;;;;;;;;;;;;;;;;;5035732;28;20076;-66
2022/03/24 07:26:45;;;;;;;;;;;;;;;;;;5036623;28;19913;-66
2022/03/24 07:29:10;;;;;;;;;;;;;;;;;;5036522;28;19936;-66
2022/03/24 07:31:36;;;;;;;;;;;;;;;;;;5036229;28;19913;-66
2022/03/24 07:34:02;;;;;;;;;;;;;;;;;;5016977;28;19913;-68
2022/03/24 07:36:27;;;;;;;;;;;;;;;;;;5018737;28;19909;-69
2022/03/24 07:38:52;;;;;;;;;;;;;;;;;;5018769;28;20214;-71
2022/03/24 07:41:17;;;;;;;;;;;;;;;;;;5036415;28;19970;-70
2022/03/24 07:43:43;;;;;;;;;;;;;;;;;;5018934;28;19905;-69
2022/03/24 07:46:08;;;;;;;;;;;;;;;;;;5018609;28;19916;-70
2022/03/24 07:48:33;;;;;;;;;;;;;;;;;;5036513;28;19909;-72
2022/03/24 07:51:00;;;;;;;;;;;;;;;;;;5035916;28;20324;-72
2022/03/24 07:53:25;;;;;;;;;;;;;;;;;;5036544;28;19912;-67
2022/03/24 07:55:50;;;;;;;;;;;;;;;;;;5036153;28;20300;-68
2022/03/24 07:58:15;;;;;;;;;;;;;;;;;;5033364;28;21250;-68
2022/03/24 08:00:42;;;;;;;;;;;;;;;;;;5018104;28;19909;-68
2022/03/24 08:03:08;;;;;;;;;;;;;;;;;;5036330;28;19909;-68
2022/03/24 08:05:33;;;;;;;;;;;;;;;;;;5046635;28;19909;-69
2022/03/24 08:07:58;;;;;;;;;;;;;;;;;;5055939;28;19908;-70
2022/03/24 08:10:23;;;;;;;;;;;;;;;;;;5038628;28;20318;-69
2022/03/24 08:12:49;;;;;;;;;;;;;;;;;;5052471;28;19913;-69
2022/03/24 08:15:14;;;;;;;;;;;;;;;;;;5052032;28;20361;-69
2022/03/24 08:17:39;;;;;;;;;;;;;;;;;;5021333;28;20372;-70
2022/03/24 08:20:04;;;;;;;;;;;;;;;;;;5010121;28;20349;-70
2022/03/24 08:22:29;;;;;;;;;;;;;;;;;;5035783;28;20314;-71
2022/03/24 08:24:55;;;;;;;;;;;;;;;;;;5035580;28;19909;-69
2022/03/24 08:27:20;;;;;;;;;;;;;;;;;;5049907;28;19987;-73
2022/03/24 08:29:45;;;;;;;;;;;;;;;;;;5055682;28;19909;-68
2022/03/24 08:32:12;;;;;;;;;;;;;;;;;;5055351;28;19909;-70
2022/03/24 08:34:37;;;;;;;;;;;;;;;;;;5055021;28;19919;-70
2022/03/24 08:37:03;;;;;;;;;;;;;;;;;;5055317;28;19909;-69
2022/03/24 08:39:28;;;;;;;;;;;;;;;;;;5032147;28;19909;-69
2022/03/24 08:41:54;;;;;;;;;;;;;;;;;;5048855;28;20261;-70
2022/03/24 08:44:19;;;;;;;;;;;;;;;;;;5015685;28;19995;-69
2022/03/24 08:46:44;;;;;;;;;;;;;;;;;;5052482;28;19908;-70
2022/03/24 08:49:11;;;;;;;;;;;;;;;;;;5024981;28;20369;-69
2022/03/24 08:51:37;;;;;;;;;;;;;;;;;;5035045;28;19913;-68
2022/03/24 08:54:03;;;;;;;;;;;;;;;;;;5036151;28;19913;-68
2022/03/24 08:56:28;;;;;;;;;;;;;;;;;;5028019;28;20265;-70
2022/03/24 08:58:53;;;;;;;;;;;;;;;;;;5036420;28;19909;-68
2022/03/24 09:01:19;;;;;;;;;;;;;;;;;;5032265;28;19915;-68
2022/03/24 09:03:44;;;;;;;;;;;;;;;;;;5038961;28;19909;-70
2022/03/24 09:06:09;;;;;;;;;;;;;;;;;;5032485;28;19966;-69
2022/03/24 09:08:35;;;;;;;;;;;;;;;;;;5054604;28;19909;-72
2022/03/24 09:11:00;;;;;;;;;;;;;;;;;;5036935;28;19913;-69
2022/03/24 09:13:25;;;;;;;;;;;;;;;;;;5050214;28;19924;-70
2022/03/24 09:15:51;;;;;;;;;;;;;;;;;;5053586;28;19909;-70
2022/03/24 09:18:16;;;;;;;;;;;;;;;;;;5054646;28;19919;-69
2022/03/24 09:20:41;;;;;;;;;;;;;;;;;;5036657;28;19909;-69
2022/03/24 09:23:08;;;;;;;;;;;;;;;;;;5051830;28;19905;-69
2022/03/24 09:25:33;;;;;;;;;;;;;;;;;;5034418;28;19909;-68
2022/03/24 09:27:59;;;;;;;;;;;;;;;;;;5034686;28;20220;-68
2022/03/24 09:30:24;;;;;;;;;;;;;;;;;;5016775;28;20276;-69
2022/03/24 09:32:49;;;;;;;;;;;;;;;;;;5016771;28;20006;-69
2022/03/24 09:35:14;;;;;;;;;;;;;;;;;;5016821;28;20028;-68
2022/03/24 09:37:40;;;;;;;;;;;;;;;;;;5000315;28;20361;-68
2022/03/24 09:40:05;;;;;;;;;;;;;;;;;;5034078;28;19963;-68
2022/03/24 09:42:31;;;;;;;;;;;;;;;;;;5034125;28;20417;-68
2022/03/24 09:44:56;;;;;;;;;;;;;;;;;;5033834;28;20326;-69
2022/03/24 09:47:21;;;;;;;;;;;;;;;;;;5034487;28;19920;-68
2022/03/24 09:49:47;;;;;;;;;;;;;;;;;;5017166;28;19909;-68
2022/03/24 09:52:12;;;;;;;;;;;;;;;;;;5033695;28;19940;-68
2022/03/24 09:54:37;;;;;;;;;;;;;;;;;;5034093;28;19959;-69
2022/03/24 09:57:03;;;;;;;;;;;;;;;;;;5034026;28;19963;-69
2022/03/24 09:59:28;;;;;;;;;;;;;;;;;;5016454;28;19932;-69
2022/03/24 10:01:55;;;;;;;;;;;;;;;;;;5016552;28;20254;-68
2022/03/24 10:04:21;;;;;;;;;;;;;;;;;;5016248;28;20408;-68
2022/03/24 10:06:46;;;;;;;;;;;;;;;;;;5033950;28;19909;-68
2022/03/24 10:09:11;;;;;;;;;;;;;;;;;;5016076;28;19905;-68
2022/03/24 10:11:36;;;;;;;;;;;;;;;;;;5034139;28;19913;-69
2022/03/24 10:14:02;;;;;;;;;;;;;;;;;;5033972;28;19996;-68
2022/03/24 10:16:27;;;;;;;;;;;;;;;;;;5034213;28;19912;-68
2022/03/24 10:18:52;;;;;;;;;;;;;;;;;;5016520;28;19920;-68
2022/03/24 10:21:17;;;;;;;;;;;;;;;;;;5016221;28;20004;-70
2022/03/24 10:23:42;;;;;;;;;;;;;;;;;;5051246;28;19940;-69
2022/03/24 10:26:08;;;;;;;;;;;;;;;;;;5053659;28;20350;-70
2022/03/24 10:28:33;;;;;;;;;;;;;;;;;;5054062;28;19908;-70
2022/03/24 10:31:03;;;;;;;;;;;;;;;;;;5035690;28;20419;-69
2022/03/24 10:33:28;;;;;;;;;;;;;;;;;;5035665;28;19912;-69
2022/03/24 10:35:54;;;;;;;;;;;;;;;;;;5035757;28;20012;-67
2022/03/24 10:38:19;;;;;;;;;;;;;;;;;;5053824;28;19912;-67
2022/03/24 10:40:44;;;;;;;;;;;;;;;;;;5035840;28;19908;-68
2022/03/24 10:43:09;;;;;;;;;;;;;;;;;;5054254;28;19963;-70
2022/03/24 10:45:35;;;;;;;;;;;;;;;;;;5053225;28;19909;-70
2022/03/24 10:48:01;;;;;;;;;;;;;;;;;;5036094;28;19913;-69
2022/03/24 10:50:27;;;;;;;;;;;;;;;;;;5053818;28;19912;-68
2022/03/24 10:52:53;;;;;;;;;;;;;;;;;;5054107;28;19913;-69
2022/03/24 10:55:18;;;;;;;;;;;;;;;;;;5055084;28;19916;-68
2022/03/24 10:57:43;;;;;;;;;;;;;;;;;;5056377;28;19948;-68
2022/03/24 11:00:09;;;;;;;;;;;;;;;;;;5053800;28;19963;-68
2022/03/24 11:02:35;;;;;;;;;;;;;;;;;;5053391;28;19912;-70
2022/03/24 11:05:01;;;;;;;;;;;;;;;;;;5036043;28;19912;-69
2022/03/24 11:07:26;;;;;;;;;;;;;;;;;;5036075;28;20238;-69
2022/03/24 11:09:51;;;;;;;;;;;;;;;;;;5056726;28;20311;-67
2022/03/24 11:12:16;;;;;;;;;;;;;;;;;;5039174;28;19913;-68
2022/03/24 11:14:42;;;;;;;;;;;;;;;;;;5056632;28;19912;-68
2022/03/24 11:17:07;;;;;;;;;;;;;;;;;;5056550;28;20261;-68
2022/03/24 11:19:32;;;;;;;;;;;;;;;;;;5056978;28;19925;-68
2022/03/24 11:21:57;;;;;;;;;;;;;;;;;;5054116;28;19909;-69
2022/03/24 11:24:23;;;;;;;;;;;;;;;;;;5056973;28;20346;-68
2022/03/24 11:26:48;;;;;;;;;;;;;;;;;;5056273;28;19912;-68
2022/03/24 11:29:13;;;;;;;;;;;;;;;;;;5056832;28;19909;-69
2022/03/24 11:31:39;;;;;;;;;;;;;;;;;;5055359;28;19913;-68
2022/03/24 11:34:04;;;;;;;;;;;;;;;;;;5056501;28;20265;-68
2022/03/24 11:36:30;;;;;;;;;;;;;;;;;;5037360;28;19909;-68
2022/03/24 11:38:56;;;;;;;;;;;;;;;;;;5035516;28;19905;-68
2022/03/24 11:41:21;;;;;;;;;;;;;;;;;;5018889;28;20300;-67
2022/03/24 11:43:46;;;;;;;;;;;;;;;;;;5036604;28;19950;-68
2022/03/24 11:46:11;;;;;;;;;;;;;;;;;;5036629;28;20301;-69
2022/03/24 11:48:37;;;;;;;;;;;;;;;;;;5034331;28;20051;-69
2022/03/24 11:51:03;;;;;;;;;;;;;;;;;;5035999;28;19910;-69
2022/03/24 11:53:28;;;;;;;;;;;;;;;;;;5035978;28;19921;-69
2022/03/24 11:55:53;;;;;;;;;;;;;;;;;;5034502;28;19909;-68
2022/03/24 11:58:18;;;;;;;;;;;;;;;;;;5038486;28;19909;-68
2022/03/24 12:00:44;;;;;;;;;;;;;;;;;;5055727;28;20011;-69
2022/03/24 12:03:09;;;;;;;;;;;;;;;;;;5055925;28;20003;-68
2022/03/24 12:05:34;;;;;;;;;;;;;;;;;;5055562;28;19909;-68
2022/03/24 12:07:59;;;;;;;;;;;;;;;;;;5055707;28;19905;-68
2022/03/24 12:10:24;;;;;;;;;;;;;;;;;;5056085;28;19909;-69
2022/03/24 12:12:50;;;;;;;;;;;;;;;;;;5055535;28;20420;-69
2022/03/24 12:15:15;;;;;;;;;;;;;;;;;;5055937;28;20005;-69
2022/03/24 12:17:40;;;;;;;;;;;;;;;;;;5055782;28;19974;-70
2022/03/24 12:20:06;;;;;;;;;;;;;;;;;;5055304;28;20012;-68
2022/03/24 12:22:32;;;;;;;;;;;;;;;;;;5055758;28;19908;-69
2022/03/24 12:24:57;;;;;;;;;;;;;;;;;;5055650;28;19908;-69
2022/03/24 12:27:22;;;;;;;;;;;;;;;;;;5055686;28;19904;-70
2022/03/24 12:29:47;;;;;;;;;;;;;;;;;;5055432;28;19913;-70
2022/03/24 12:32:13;;;;;;;;;;;;;;;;;;5055457;28;19913;-68
2022/03/24 12:34:38;;;;;;;;;;;;;;;;;;5055837;28;19916;-70
2022/03/24 12:37:03;;;;;;;;;;;;;;;;;;5021740;28;19916;-70
2022/03/24 12:39:29;;;;;;;;;;;;;;;;;;5055783;28;19931;-70
2022/03/24 12:41:54;;;;;;;;;;;;;;;;;;5055356;28;20307;-70
2022/03/24 12:44:20;;;;;;;;;;;;;;;;;;5055945;28;19975;-70
2022/03/24 12:46:45;;;;;;;;;;;;;;;;;;5055302;28;19944;-70
2022/03/24 12:49:10;;;;;;;;;;;;;;;;;;5037110;28;19987;-70
2022/03/24 12:51:36;;;;;;;;;;;;;;;;;;5054952;28;20410;-71
2022/03/24 12:54:02;;;;;;;;;;;;;;;;;;5037286;28;20428;-70
2022/03/24 12:56:28;;;;;;;;;;;;;;;;;;5055791;28;19991;-70
2022/03/24 12:58:53;;;;;;;;;;;;;;;;;;5037129;28;20002;-70
2022/03/24 13:01:18;;;;;;;;;;;;;;;;;;4999855;28;20265;-70
2022/03/24 13:03:44;;;;;;;;;;;;;;;;;;5034277;28;19955;-70
2022/03/24 13:06:09;;;;;;;;;;;;;;;;;;5030948;28;19943;-69
2022/03/24 13:08:35;;;;;;;;;;;;;;;;;;5035049;28;19909;-70
2022/03/24 13:11:03;;;;;;;;;;;;;;;;;;5033637;28;19913;-70
2022/03/24 13:13:28;;;;;;;;;;;;;;;;;;5033532;28;19913;-70
2022/03/24 13:15:53;;;;;;;;;;;;;;;;;;5034610;28;19928;-69
2022/03/24 13:18:18;;;;;;;;;;;;;;;;;;5034627;28;20063;-69
2022/03/24 13:20:45;;;;;;;;;;;;;;;;;;5035149;28;19909;-69
2022/03/24 13:23:11;;;;;;;;;;;;;;;;;;5017068;28;19920;-69
2022/03/24 13:25:36;;;;;;;;;;;;;;;;;;5033296;28;20270;-70
2022/03/24 13:28:02;;;;;;;;;;;;;;;;;;5034680;28;20254;-70
2022/03/24 13:30:27;;;;;;;;;;;;;;;;;;5034607;28;19913;-69
2022/03/24 13:32:52;;;;;;;;;;;;;;;;;;5034178;28;20261;-69
2022/03/24 13:35:18;;;;;;;;;;;;;;;;;;5033316;28;19960;-69
2022/03/24 13:37:43;;;;;;;;;;;;;;;;;;5033206;28;19905;-69
2022/03/24 13:40:08;;;;;;;;;;;;;;;;;;5034083;28;20342;-69
2022/03/24 13:42:34;;;;;;;;;;;;;;;;;;5034416;28;19909;-69
2022/03/24 13:44:59;;;;;;;;;;;;;;;;;;5034091;28;20352;-69
2022/03/24 13:47:25;;;;;;;;;;;;;;;;;;5033115;28;19915;-69
2022/03/24 13:49:50;;;;;;;;;;;;;;;;;;5017159;28;20342;-69
2022/03/24 13:52:15;;;;;;;;;;;;;;;;;;5034118;28;20265;-69
2022/03/24 13:54:40;;;;;;;;;;;;;;;;;;5033528;28;19917;-69
2022/03/24 13:57:07;;;;;;;;;;;;;;;;;;5034755;28;19909;-69
2022/03/24 13:59:34;;;;;;;;;;;;;;;;;;5033950;28;19994;-69
2022/03/24 14:01:59;;;;;;;;;;;;;;;;;;5015672;28;19910;-69
2022/03/24 14:04:25;;;;;;;;;;;;;;;;;;5033759;28;19916;-69
2022/03/24 14:06:50;;;;;;;;;;;;;;;;;;5034074;28;19915;-69
2022/03/24 14:09:15;;;;;;;;;;;;;;;;;;5034087;28;20258;-69
2022/03/24 14:11:40;;;;;;;;;;;;;;;;;;5034020;28;20365;-69
2022/03/24 14:14:07;;;;;;;;;;;;;;;;;;5034047;28;19948;-69
2022/03/24 14:16:32;;;;;;;;;;;;;;;;;;5034062;28;19916;-69
2022/03/24 14:18:57;;;;;;;;;;;;;;;;;;5034610;28;20004;-69
2022/03/24 14:21:23;;;;;;;;;;;;;;;;;;5033994;28;19905;-69
2022/03/24 14:23:49;;;;;;;;;;;;;;;;;;5033755;28;19909;-69
2022/03/24 14:26:14;;;;;;;;;;;;;;;;;;5033673;28;19909;-69
2022/03/24 14:28:39;;;;;;;;;;;;;;;;;;5034207;28;19916;-70
2022/03/24 14:31:05;;;;;;;;;;;;;;;;;;5033538;28;19909;-70
2022/03/24 14:33:30;;;;;;;;;;;;;;;;;;5033825;28;19913;-70
2022/03/24 14:35:55;;;;;;;;;;;;;;;;;;5016592;28;19995;-70
2022/03/24 14:38:20;;;;;;;;;;;;;;;;;;5016479;28;20348;-71
2022/03/24 14:40:46;;;;;;;;;;;;;;;;;;5033526;28;19909;-70
2022/03/24 14:43:11;;;;;;;;;;;;;;;;;;5018172;28;20334;-70
2022/03/24 14:45:36;;;;;;;;;;;;;;;;;;5037308;28;20333;-71
2022/03/24 14:48:02;;;;;;;;;;;;;;;;;;5037260;28;19975;-70
2022/03/24 14:50:27;;;;;;;;;;;;;;;;;;5020414;28;19905;-70
2022/03/24 14:52:52;;;;;;;;;;;;;;;;;;5019784;28;20369;-71
2022/03/24 14:55:17;;;;;;;;;;;;;;;;;;5037087;28;19909;-70
2022/03/24 14:57:42;;;;;;;;;;;;;;;;;;5037311;28;19909;-70
2022/03/24 15:00:08;;;;;;;;;;;;;;;;;;5037204;28;19916;-71
2022/03/24 15:02:33;;;;;;;;;;;;;;;;;;5019507;28;20269;-71
2022/03/24 15:04:58;;;;;;;;;;;;;;;;;;5037747;28;19943;-70
2022/03/24 15:07:23;;;;;;;;;;;;;;;;;;5037481;28;19909;-70
2022/03/24 15:09:49;;;;;;;;;;;;;;;;;;5017416;28;19916;-70
2022/03/24 15:12:14;;;;;;;;;;;;;;;;;;5019566;28;19960;-70
2022/03/24 15:17:24;;;;;;;;;;;;;;;;;;5037776;28;19958;-71
2022/03/24 15:19:49;;;;;;;;;;;;;;;;;;5057575;28;19913;-70
2022/03/24 15:22:14;;;;;;;;;;;;;;;;;;5055531;28;19905;-70
2022/03/24 15:24:40;;;;;;;;;;;;;;;;;;5039876;28;20007;-70
2022/03/24 15:27:05;;;;;;;;;;;;;;;;;;5037112;28;19967;-70
2022/03/24 15:29:31;;;;;;;;;;;;;;;;;;5037126;28;19970;-70
2022/03/24 15:31:56;;;;;;;;;;;;;;;;;;5036594;28;19920;-70
2022/03/24 15:34:25;;;;;;;;;;;;;;;;;;5033210;28;19916;-70
2022/03/24 15:36:50;;;;;;;;;;;;;;;;;;5036409;28;19915;-70
2022/03/24 15:39:16;;;;;;;;;;;;;;;;;;5036611;28;19944;-70
2022/03/24 15:41:41;;;;;;;;;;;;;;;;;;5036565;28;20257;-70
2022/03/24 15:44:07;;;;;;;;;;;;;;;;;;5036826;28;20258;-70
2022/03/24 15:46:33;;;;;;;;;;;;;;;;;;5036759;28;20023;-70
2022/03/24 15:48:58;;;;;;;;;;;;;;;;;;5036457;28;20391;-70
2022/03/24 15:51:23;;;;;;;;;;;;;;;;;;5036287;28;20379;-70
2022/03/24 15:53:48;;;;;;;;;;;;;;;;;;5018251;28;20310;-70
2022/03/24 15:56:13;;;;;;;;;;;;;;;;;;5036397;28;19909;-70
2022/03/24 15:58:41;;;;;;;;;;;;;;;;;;5036273;28;19909;-70
2022/03/24 16:01:06;;;;;;;;;;;;;;;;;;5036213;28;19916;-70
2022/03/24 16:03:31;;;;;;;;;;;;;;;;;;5036521;28;19908;-70
2022/03/24 16:05:57;;;;;;;;;;;;;;;;;;5018484;28;20003;-71
2022/03/24 16:08:22;;;;;;;;;;;;;;;;;;5034213;28;20000;-71
2022/03/24 16:10:47;;;;;;;;;;;;;;;;;;5036070;28;19909;-71
2022/03/24 16:13:12;;;;;;;;;;;;;;;;;;5018728;28;19959;-70
2022/03/24 16:15:38;;;;;;;;;;;;;;;;;;5050759;28;19919;-70
2022/03/24 16:18:03;;;;;;;;;;;;;;;;;;5055851;28;19904;-71
2022/03/24 16:20:28;;;;;;;;;;;;;;;;;;5038154;28;19915;-70
2022/03/24 16:22:53;;;;;;;;;;;;;;;;;;5055584;28;20325;-70
2022/03/24 16:25:19;;;;;;;;;;;;;;;;;;5035910;28;20320;-70
2022/03/24 16:27:44;;;;;;;;;;;;;;;;;;5055385;28;20003;-70
2022/03/24 16:30:09;;;;;;;;;;;;;;;;;;5055351;28;19909;-71
2022/03/24 16:32:35;;;;;;;;;;;;;;;;;;5054958;28;19916;-70
2022/03/24 16:35:00;;;;;;;;;;;;;;;;;;5021334;28;19935;-71
2022/03/24 16:37:26;;;;;;;;;;;;;;;;;;5036668;28;19909;-70